sensor_id;sensor_type;location;lat;lon;timestamp;temperature;humidity
18948;DHT22;9607;51.600;7.558;2023-12-20T00:00:20;7.70;99.90
18948;DHT22;9607;51.600;7.558;2023-12-20T00:02:47;7.70;99.90
18948;DHT22;9607;51.600;7.558;2023-12-20T00:05:14;7.60;99.90
18948;DHT22;9607;51.600;7.558;2023-12-20T00:07:41;7.60;99.90
18948;DHT22;9607;51.600;7.558;2023-12-20T00:10:09;7.60;99.90
18948;DHT22;9607;51.600;7.558;2023-12-20T00:12:38;7.50;99.90
18948;DHT22;9607;51.600;7.558;2023-12-20T00:15:06;7.50;99.90
18948;DHT22;9607;51.600;7.558;2023-12-20T00:17:32;7.50;99.90
18948;DHT22;9607;51.600;7.558;2023-12-20T00:19:59;7.40;99.90
18948;DHT22;9607;51.600;7.558;2023-12-20T00:22:26;7.40;99.90
18948;DHT22;9607;51.600;7.558;2023-12-20T00:24:53;7.40;99.90
18948;DHT22;9607;51.600;7.558;2023-12-20T00:27:21;7.30;99.90
18948;DHT22;9607;51.600;7.558;2023-12-20T00:29:48;7.30;99.90
18948;DHT22;9607;51.600;7.558;2023-12-20T00:32:16;7.30;99.90
18948;DHT22;9607;51.600;7.558;2023-12-20T00:34:43;7.20;99.90
18948;DHT22;9607;51.600;7.558;2023-12-20T00:37:10;7.20;99.90
18948;DHT22;9607;51.600;7.558;2023-12-20T00:39:37;7.10;99.90
18948;DHT22;9607;51.600;7.558;2023-12-20T00:42:04;7.20;99.90
18948;DHT22;9607;51.600;7.558;2023-12-20T00:44:32;7.20;99.90
18948;DHT22;9607;51.600;7.558;2023-12-20T00:46:59;7.20;99.90
18948;DHT22;9607;51.600;7.558;2023-12-20T00:49:26;7.20;99.90
18948;DHT22;9607;51.600;7.558;2023-12-20T00:51:53;7.20;99.90
18948;DHT22;9607;51.600;7.558;2023-12-20T00:54:20;7.30;99.90
18948;DHT22;9607;51.600;7.558;2023-12-20T00:56:47;7.30;99.90
18948;DHT22;9607;51.600;7.558;2023-12-20T00:59:14;7.20;99.90
18948;DHT22;9607;51.600;7.558;2023-12-20T01:01:43;7.20;99.90
18948;DHT22;9607;51.600;7.558;2023-12-20T01:04:09;7.20;99.90
18948;DHT22;9607;51.600;7.558;2023-12-20T01:06:36;7.20;99.90
18948;DHT22;9607;51.600;7.558;2023-12-20T01:09:03;7.30;99.90
18948;DHT22;9607;51.600;7.558;2023-12-20T01:11:30;7.30;99.90
18948;DHT22;9607;51.600;7.558;2023-12-20T01:13:56;7.30;99.90
18948;DHT22;9607;51.600;7.558;2023-12-20T01:16:23;7.30;99.90
18948;DHT22;9607;51.600;7.558;2023-12-20T01:18:51;7.30;99.90
18948;DHT22;9607;51.600;7.558;2023-12-20T01:21:18;7.30;99.90
18948;DHT22;9607;51.600;7.558;2023-12-20T01:23:44;7.20;99.90
18948;DHT22;9607;51.600;7.558;2023-12-20T01:26:11;7.20;99.90
18948;DHT22;9607;51.600;7.558;2023-12-20T01:28:38;7.20;99.90
18948;DHT22;9607;51.600;7.558;2023-12-20T01:31:05;7.20;99.90
18948;DHT22;9607;51.600;7.558;2023-12-20T01:33:31;7.20;99.90
18948;DHT22;9607;51.600;7.558;2023-12-20T01:36:03;7.20;99.90
18948;DHT22;9607;51.600;7.558;2023-12-20T01:38:31;7.20;99.90
18948;DHT22;9607;51.600;7.558;2023-12-20T01:40:57;7.10;99.90
18948;DHT22;9607;51.600;7.558;2023-12-20T01:43:24;7.20;99.90
18948;DHT22;9607;51.600;7.558;2023-12-20T01:45:51;7.20;99.90
18948;DHT22;9607;51.600;7.558;2023-12-20T01:48:20;7.20;99.90
18948;DHT22;9607;51.600;7.558;2023-12-20T01:50:47;7.20;99.90
18948;DHT22;9607;51.600;7.558;2023-12-20T01:53:16;7.20;99.90
18948;DHT22;9607;51.600;7.558;2023-12-20T01:55:44;7.10;99.90
18948;DHT22;9607;51.600;7.558;2023-12-20T01:58:12;7.10;99.90
18948;DHT22;9607;51.600;7.558;2023-12-20T02:00:39;7.00;99.90
18948;DHT22;9607;51.600;7.558;2023-12-20T02:03:06;7.00;99.90
18948;DHT22;9607;51.600;7.558;2023-12-20T02:05:35;6.90;99.90
18948;DHT22;9607;51.600;7.558;2023-12-20T02:08:02;6.90;99.90
18948;DHT22;9607;51.600;7.558;2023-12-20T02:10:30;6.90;99.90
18948;DHT22;9607;51.600;7.558;2023-12-20T02:12:57;6.80;99.90
18948;DHT22;9607;51.600;7.558;2023-12-20T02:15:24;6.90;99.90
18948;DHT22;9607;51.600;7.558;2023-12-20T02:17:51;6.90;99.90
18948;DHT22;9607;51.600;7.558;2023-12-20T02:20:18;6.80;99.90
18948;DHT22;9607;51.600;7.558;2023-12-20T02:22:47;6.80;99.90
18948;DHT22;9607;51.600;7.558;2023-12-20T02:25:13;6.80;99.90
18948;DHT22;9607;51.600;7.558;2023-12-20T02:27:40;6.80;99.90
18948;DHT22;9607;51.600;7.558;2023-12-20T02:30:09;6.80;99.90
18948;DHT22;9607;51.600;7.558;2023-12-20T02:32:36;6.80;99.90
18948;DHT22;9607;51.600;7.558;2023-12-20T02:35:04;6.80;99.90
18948;DHT22;9607;51.600;7.558;2023-12-20T02:37:31;6.80;99.90
18948;DHT22;9607;51.600;7.558;2023-12-20T02:40:00;6.80;99.90
18948;DHT22;9607;51.600;7.558;2023-12-20T02:42:27;6.80;99.90
18948;DHT22;9607;51.600;7.558;2023-12-20T02:44:53;6.80;99.90
18948;DHT22;9607;51.600;7.558;2023-12-20T02:47:21;6.80;99.90
18948;DHT22;9607;51.600;7.558;2023-12-20T02:49:49;6.80;99.90
18948;DHT22;9607;51.600;7.558;2023-12-20T02:52:18;6.80;99.90
18948;DHT22;9607;51.600;7.558;2023-12-20T02:54:45;6.80;99.90
18948;DHT22;9607;51.600;7.558;2023-12-20T02:57:13;6.80;99.90
18948;DHT22;9607;51.600;7.558;2023-12-20T02:59:40;6.80;99.90
18948;DHT22;9607;51.600;7.558;2023-12-20T03:02:07;6.80;99.90
18948;DHT22;9607;51.600;7.558;2023-12-20T03:04:34;6.80;99.90
18948;DHT22;9607;51.600;7.558;2023-12-20T03:07:01;6.80;99.90
18948;DHT22;9607;51.600;7.558;2023-12-20T03:09:27;6.80;99.90
18948;DHT22;9607;51.600;7.558;2023-12-20T03:11:54;6.70;99.90
18948;DHT22;9607;51.600;7.558;2023-12-20T03:14:22;6.70;99.90
18948;DHT22;9607;51.600;7.558;2023-12-20T03:16:49;6.70;99.90
18948;DHT22;9607;51.600;7.558;2023-12-20T03:19:17;6.70;99.90
18948;DHT22;9607;51.600;7.558;2023-12-20T03:21:44;6.60;99.90
18948;DHT22;9607;51.600;7.558;2023-12-20T03:24:11;6.60;99.90
18948;DHT22;9607;51.600;7.558;2023-12-20T03:26:38;6.70;99.90
18948;DHT22;9607;51.600;7.558;2023-12-20T03:29:04;6.70;99.90
18948;DHT22;9607;51.600;7.558;2023-12-20T03:31:33;6.70;99.90
18948;DHT22;9607;51.600;7.558;2023-12-20T03:34:00;6.70;99.90
18948;DHT22;9607;51.600;7.558;2023-12-20T03:36:27;6.70;99.90
18948;DHT22;9607;51.600;7.558;2023-12-20T03:38:54;6.60;99.90
18948;DHT22;9607;51.600;7.558;2023-12-20T03:41:21;6.60;99.90
18948;DHT22;9607;51.600;7.558;2023-12-20T03:43:48;6.60;99.90
18948;DHT22;9607;51.600;7.558;2023-12-20T03:46:14;6.70;99.90
18948;DHT22;9607;51.600;7.558;2023-12-20T03:48:42;6.60;99.90
18948;DHT22;9607;51.600;7.558;2023-12-20T03:51:09;6.60;99.90
18948;DHT22;9607;51.600;7.558;2023-12-20T03:53:36;6.70;99.90
18948;DHT22;9607;51.600;7.558;2023-12-20T03:56:03;6.70;99.90
18948;DHT22;9607;51.600;7.558;2023-12-20T03:58:31;6.60;99.90
18948;DHT22;9607;51.600;7.558;2023-12-20T04:00:58;6.60;99.90
18948;DHT22;9607;51.600;7.558;2023-12-20T04:03:24;6.50;99.90
18948;DHT22;9607;51.600;7.558;2023-12-20T04:05:52;6.50;99.90
18948;DHT22;9607;51.600;7.558;2023-12-20T04:08:19;6.40;99.90
18948;DHT22;9607;51.600;7.558;2023-12-20T04:10:46;6.30;99.90
18948;DHT22;9607;51.600;7.558;2023-12-20T04:13:13;6.30;99.90
18948;DHT22;9607;51.600;7.558;2023-12-20T04:15:40;6.20;99.90
18948;DHT22;9607;51.600;7.558;2023-12-20T04:18:07;6.10;99.90
18948;DHT22;9607;51.600;7.558;2023-12-20T04:20:33;6.20;99.90
18948;DHT22;9607;51.600;7.558;2023-12-20T04:23:01;6.10;99.90
18948;DHT22;9607;51.600;7.558;2023-12-20T04:25:28;6.10;99.90
18948;DHT22;9607;51.600;7.558;2023-12-20T04:27:55;6.00;99.90
18948;DHT22;9607;51.600;7.558;2023-12-20T04:30:22;6.00;99.90
18948;DHT22;9607;51.600;7.558;2023-12-20T04:32:49;6.00;99.90
18948;DHT22;9607;51.600;7.558;2023-12-20T04:35:16;6.00;99.90
18948;DHT22;9607;51.600;7.558;2023-12-20T04:37:43;6.00;99.90
18948;DHT22;9607;51.600;7.558;2023-12-20T04:40:11;6.00;99.90
18948;DHT22;9607;51.600;7.558;2023-12-20T04:42:38;6.00;99.90
18948;DHT22;9607;51.600;7.558;2023-12-20T04:45:06;6.00;99.90
18948;DHT22;9607;51.600;7.558;2023-12-20T04:47:33;6.00;99.90
18948;DHT22;9607;51.600;7.558;2023-12-20T04:50:00;6.00;99.90
18948;DHT22;9607;51.600;7.558;2023-12-20T04:52:27;6.10;99.90
18948;DHT22;9607;51.600;7.558;2023-12-20T04:54:54;6.20;99.90
18948;DHT22;9607;51.600;7.558;2023-12-20T04:57:23;6.20;99.90
18948;DHT22;9607;51.600;7.558;2023-12-20T04:59:49;6.20;99.90
18948;DHT22;9607;51.600;7.558;2023-12-20T05:02:16;6.20;99.90
18948;DHT22;9607;51.600;7.558;2023-12-20T05:04:43;6.20;99.90
18948;DHT22;9607;51.600;7.558;2023-12-20T05:07:10;6.20;99.90
18948;DHT22;9607;51.600;7.558;2023-12-20T05:09:37;6.30;99.90
18948;DHT22;9607;51.600;7.558;2023-12-20T05:12:04;6.30;99.90
18948;DHT22;9607;51.600;7.558;2023-12-20T05:14:33;6.30;99.90
18948;DHT22;9607;51.600;7.558;2023-12-20T05:17:00;6.40;99.90
18948;DHT22;9607;51.600;7.558;2023-12-20T05:19:27;6.40;99.90
18948;DHT22;9607;51.600;7.558;2023-12-20T05:21:53;6.40;99.90
18948;DHT22;9607;51.600;7.558;2023-12-20T05:24:20;6.40;99.90
18948;DHT22;9607;51.600;7.558;2023-12-20T05:26:47;6.30;99.90
18948;DHT22;9607;51.600;7.558;2023-12-20T05:29:14;6.30;99.90
18948;DHT22;9607;51.600;7.558;2023-12-20T05:31:42;6.20;99.90
18948;DHT22;9607;51.600;7.558;2023-12-20T05:34:09;6.20;99.90
18948;DHT22;9607;51.600;7.558;2023-12-20T05:36:36;6.20;99.90
18948;DHT22;9607;51.600;7.558;2023-12-20T05:39:04;6.20;99.90
18948;DHT22;9607;51.600;7.558;2023-12-20T05:41:31;6.20;99.90
18948;DHT22;9607;51.600;7.558;2023-12-20T05:43:58;6.20;99.90
18948;DHT22;9607;51.600;7.558;2023-12-20T05:46:25;6.20;99.90
18948;DHT22;9607;51.600;7.558;2023-12-20T05:48:54;6.20;99.90
18948;DHT22;9607;51.600;7.558;2023-12-20T05:51:21;6.20;99.90
18948;DHT22;9607;51.600;7.558;2023-12-20T05:53:48;6.20;99.90
18948;DHT22;9607;51.600;7.558;2023-12-20T05:56:15;6.20;99.90
18948;DHT22;9607;51.600;7.558;2023-12-20T05:58:42;6.20;99.90
18948;DHT22;9607;51.600;7.558;2023-12-20T06:01:09;6.20;99.90
18948;DHT22;9607;51.600;7.558;2023-12-20T06:03:36;6.20;99.90
18948;DHT22;9607;51.600;7.558;2023-12-20T06:06:07;6.30;99.90
18948;DHT22;9607;51.600;7.558;2023-12-20T06:08:33;6.30;99.90
18948;DHT22;9607;51.600;7.558;2023-12-20T06:11:00;6.30;99.90
18948;DHT22;9607;51.600;7.558;2023-12-20T06:13:27;6.30;99.90
18948;DHT22;9607;51.600;7.558;2023-12-20T06:15:54;6.30;99.90
18948;DHT22;9607;51.600;7.558;2023-12-20T06:18:22;6.30;99.90
18948;DHT22;9607;51.600;7.558;2023-12-20T06:20:49;6.30;99.90
18948;DHT22;9607;51.600;7.558;2023-12-20T06:23:18;6.40;99.90
18948;DHT22;9607;51.600;7.558;2023-12-20T06:25:45;6.40;99.90
18948;DHT22;9607;51.600;7.558;2023-12-20T06:28:12;6.40;99.90
18948;DHT22;9607;51.600;7.558;2023-12-20T06:30:40;6.40;99.90
18948;DHT22;9607;51.600;7.558;2023-12-20T06:33:07;6.40;99.90
18948;DHT22;9607;51.600;7.558;2023-12-20T06:35:35;6.40;99.90
18948;DHT22;9607;51.600;7.558;2023-12-20T06:38:02;6.40;99.90
18948;DHT22;9607;51.600;7.558;2023-12-20T06:40:30;6.40;99.90
18948;DHT22;9607;51.600;7.558;2023-12-20T06:42:57;6.40;99.90
18948;DHT22;9607;51.600;7.558;2023-12-20T06:45:25;6.40;99.90
18948;DHT22;9607;51.600;7.558;2023-12-20T06:47:51;6.40;99.90
18948;DHT22;9607;51.600;7.558;2023-12-20T06:50:20;6.40;99.90
18948;DHT22;9607;51.600;7.558;2023-12-20T06:52:46;6.40;99.90
18948;DHT22;9607;51.600;7.558;2023-12-20T06:55:13;6.50;99.90
18948;DHT22;9607;51.600;7.558;2023-12-20T06:57:41;6.50;99.90
18948;DHT22;9607;51.600;7.558;2023-12-20T07:00:11;6.50;99.90
18948;DHT22;9607;51.600;7.558;2023-12-20T07:02:38;6.50;99.90
18948;DHT22;9607;51.600;7.558;2023-12-20T07:05:05;6.50;99.90
18948;DHT22;9607;51.600;7.558;2023-12-20T07:07:32;6.50;99.90
18948;DHT22;9607;51.600;7.558;2023-12-20T07:09:59;6.50;99.90
18948;DHT22;9607;51.600;7.558;2023-12-20T07:12:26;6.60;99.90
18948;DHT22;9607;51.600;7.558;2023-12-20T07:14:55;6.60;99.90
18948;DHT22;9607;51.600;7.558;2023-12-20T07:17:21;6.60;99.90
18948;DHT22;9607;51.600;7.558;2023-12-20T07:19:48;6.60;99.90
18948;DHT22;9607;51.600;7.558;2023-12-20T07:22:15;6.60;99.90
18948;DHT22;9607;51.600;7.558;2023-12-20T07:24:42;6.60;99.90
18948;DHT22;9607;51.600;7.558;2023-12-20T07:27:08;6.60;99.90
18948;DHT22;9607;51.600;7.558;2023-12-20T07:29:35;6.60;99.90
18948;DHT22;9607;51.600;7.558;2023-12-20T07:32:06;6.60;99.90
18948;DHT22;9607;51.600;7.558;2023-12-20T07:34:34;6.60;99.90
18948;DHT22;9607;51.600;7.558;2023-12-20T07:37:01;6.60;99.90
18948;DHT22;9607;51.600;7.558;2023-12-20T07:39:28;6.60;99.90
18948;DHT22;9607;51.600;7.558;2023-12-20T07:41:55;6.60;99.90
18948;DHT22;9607;51.600;7.558;2023-12-20T07:44:21;6.60;99.90
18948;DHT22;9607;51.600;7.558;2023-12-20T07:46:48;6.60;99.90
18948;DHT22;9607;51.600;7.558;2023-12-20T07:49:16;6.60;99.90
18948;DHT22;9607;51.600;7.558;2023-12-20T07:51:43;6.60;99.90
18948;DHT22;9607;51.600;7.558;2023-12-20T07:54:11;6.70;99.90
18948;DHT22;9607;51.600;7.558;2023-12-20T07:56:37;6.70;99.90
18948;DHT22;9607;51.600;7.558;2023-12-20T07:59:05;6.60;99.90
18948;DHT22;9607;51.600;7.558;2023-12-20T08:01:32;6.70;99.90
18948;DHT22;9607;51.600;7.558;2023-12-20T08:03:59;6.70;99.90
18948;DHT22;9607;51.600;7.558;2023-12-20T08:06:27;6.70;99.90
18948;DHT22;9607;51.600;7.558;2023-12-20T08:08:53;6.70;99.90
18948;DHT22;9607;51.600;7.558;2023-12-20T08:11:21;6.70;99.90
18948;DHT22;9607;51.600;7.558;2023-12-20T08:13:48;6.70;99.90
18948;DHT22;9607;51.600;7.558;2023-12-20T08:16:14;6.70;99.90
18948;DHT22;9607;51.600;7.558;2023-12-20T08:18:43;6.70;99.90
18948;DHT22;9607;51.600;7.558;2023-12-20T08:21:10;6.70;99.90
18948;DHT22;9607;51.600;7.558;2023-12-20T08:23:38;6.80;99.90
18948;DHT22;9607;51.600;7.558;2023-12-20T08:26:07;6.80;99.90
18948;DHT22;9607;51.600;7.558;2023-12-20T08:28:35;6.80;99.90
18948;DHT22;9607;51.600;7.558;2023-12-20T08:31:03;6.80;99.90
18948;DHT22;9607;51.600;7.558;2023-12-20T08:33:31;6.90;99.90
18948;DHT22;9607;51.600;7.558;2023-12-20T08:35:58;6.90;99.90
18948;DHT22;9607;51.600;7.558;2023-12-20T08:38:25;6.80;99.90
18948;DHT22;9607;51.600;7.558;2023-12-20T08:40:56;6.90;99.90
18948;DHT22;9607;51.600;7.558;2023-12-20T08:43:23;6.90;99.90
18948;DHT22;9607;51.600;7.558;2023-12-20T08:45:50;6.90;99.90
18948;DHT22;9607;51.600;7.558;2023-12-20T08:48:19;6.90;99.90
18948;DHT22;9607;51.600;7.558;2023-12-20T08:50:46;6.90;99.90
18948;DHT22;9607;51.600;7.558;2023-12-20T08:53:14;7.00;99.90
18948;DHT22;9607;51.600;7.558;2023-12-20T08:55:42;7.10;99.90
18948;DHT22;9607;51.600;7.558;2023-12-20T08:58:13;7.00;99.90
18948;DHT22;9607;51.600;7.558;2023-12-20T09:00:40;7.00;99.90
18948;DHT22;9607;51.600;7.558;2023-12-20T09:03:07;7.00;99.90
18948;DHT22;9607;51.600;7.558;2023-12-20T09:05:35;7.00;99.90
18948;DHT22;9607;51.600;7.558;2023-12-20T09:08:06;7.00;99.90
18948;DHT22;9607;51.600;7.558;2023-12-20T09:10:36;7.00;99.90
18948;DHT22;9607;51.600;7.558;2023-12-20T09:13:07;7.00;99.90
18948;DHT22;9607;51.600;7.558;2023-12-20T09:15:35;7.00;99.90
18948;DHT22;9607;51.600;7.558;2023-12-20T09:18:03;7.10;99.90
18948;DHT22;9607;51.600;7.558;2023-12-20T09:20:30;7.10;99.90
18948;DHT22;9607;51.600;7.558;2023-12-20T09:22:57;7.10;99.90
18948;DHT22;9607;51.600;7.558;2023-12-20T09:25:24;7.10;99.90
18948;DHT22;9607;51.600;7.558;2023-12-20T09:27:51;7.10;99.90
18948;DHT22;9607;51.600;7.558;2023-12-20T09:30:18;7.10;99.90
18948;DHT22;9607;51.600;7.558;2023-12-20T09:32:50;7.10;99.90
18948;DHT22;9607;51.600;7.558;2023-12-20T09:35:17;7.30;99.90
18948;DHT22;9607;51.600;7.558;2023-12-20T09:37:49;7.10;99.90
18948;DHT22;9607;51.600;7.558;2023-12-20T09:40:18;7.10;99.90
18948;DHT22;9607;51.600;7.558;2023-12-20T09:42:50;7.20;99.90
18948;DHT22;9607;51.600;7.558;2023-12-20T09:45:22;7.10;99.90
18948;DHT22;9607;51.600;7.558;2023-12-20T09:47:52;7.20;99.90
18948;DHT22;9607;51.600;7.558;2023-12-20T09:50:21;7.30;99.90
18948;DHT22;9607;51.600;7.558;2023-12-20T09:52:50;7.30;99.90
18948;DHT22;9607;51.600;7.558;2023-12-20T09:55:19;7.30;99.90
18948;DHT22;9607;51.600;7.558;2023-12-20T09:57:48;7.40;99.90
18948;DHT22;9607;51.600;7.558;2023-12-20T10:00:16;7.40;99.90
18948;DHT22;9607;51.600;7.558;2023-12-20T10:02:55;7.50;99.90
18948;DHT22;9607;51.600;7.558;2023-12-20T10:05:28;7.50;99.90
18948;DHT22;9607;51.600;7.558;2023-12-20T10:07:55;7.50;99.90
18948;DHT22;9607;51.600;7.558;2023-12-20T10:10:23;7.50;99.90
18948;DHT22;9607;51.600;7.558;2023-12-20T10:13:02;7.50;99.90
18948;DHT22;9607;51.600;7.558;2023-12-20T10:15:29;7.50;99.90
18948;DHT22;9607;51.600;7.558;2023-12-20T10:17:59;7.60;99.90
18948;DHT22;9607;51.600;7.558;2023-12-20T10:20:27;7.60;99.90
18948;DHT22;9607;51.600;7.558;2023-12-20T10:22:56;7.60;99.90
18948;DHT22;9607;51.600;7.558;2023-12-20T10:25:24;7.60;99.90
18948;DHT22;9607;51.600;7.558;2023-12-20T10:28:09;7.70;99.90
18948;DHT22;9607;51.600;7.558;2023-12-20T10:30:37;7.70;99.90
18948;DHT22;9607;51.600;7.558;2023-12-20T10:33:06;7.70;99.90
18948;DHT22;9607;51.600;7.558;2023-12-20T10:35:37;7.60;99.90
18948;DHT22;9607;51.600;7.558;2023-12-20T10:38:05;7.50;99.90
18948;DHT22;9607;51.600;7.558;2023-12-20T10:40:35;7.60;99.90
18948;DHT22;9607;51.600;7.558;2023-12-20T10:43:04;7.60;99.90
18948;DHT22;9607;51.600;7.558;2023-12-20T10:45:31;7.60;99.90
18948;DHT22;9607;51.600;7.558;2023-12-20T10:47:59;7.60;99.90
18948;DHT22;9607;51.600;7.558;2023-12-20T10:50:29;7.60;99.90
18948;DHT22;9607;51.600;7.558;2023-12-20T10:52:57;7.50;99.90
18948;DHT22;9607;51.600;7.558;2023-12-20T10:55:24;7.60;99.90
18948;DHT22;9607;51.600;7.558;2023-12-20T10:57:52;7.60;99.90
18948;DHT22;9607;51.600;7.558;2023-12-20T11:00:21;7.60;99.90
18948;DHT22;9607;51.600;7.558;2023-12-20T11:02:50;7.70;99.90
18948;DHT22;9607;51.600;7.558;2023-12-20T11:05:25;7.70;99.90
18948;DHT22;9607;51.600;7.558;2023-12-20T11:07:59;7.50;99.90
18948;DHT22;9607;51.600;7.558;2023-12-20T11:10:31;7.70;99.90
18948;DHT22;9607;51.600;7.558;2023-12-20T11:13:08;7.70;99.90
18948;DHT22;9607;51.600;7.558;2023-12-20T11:15:36;7.70;99.90
18948;DHT22;9607;51.600;7.558;2023-12-20T11:18:04;7.70;99.90
18948;DHT22;9607;51.600;7.558;2023-12-20T11:20:36;7.70;99.90
18948;DHT22;9607;51.600;7.558;2023-12-20T11:23:06;7.70;99.90
18948;DHT22;9607;51.600;7.558;2023-12-20T11:25:50;7.70;99.90
18948;DHT22;9607;51.600;7.558;2023-12-20T11:28:21;7.80;99.90
18948;DHT22;9607;51.600;7.558;2023-12-20T11:30:50;7.70;99.90
18948;DHT22;9607;51.600;7.558;2023-12-20T11:33:21;7.70;99.90
18948;DHT22;9607;51.600;7.558;2023-12-20T11:35:48;7.80;99.90
18948;DHT22;9607;51.600;7.558;2023-12-20T11:38:20;7.90;99.90
18948;DHT22;9607;51.600;7.558;2023-12-20T11:40:48;7.80;99.90
18948;DHT22;9607;51.600;7.558;2023-12-20T11:43:30;7.90;99.90
18948;DHT22;9607;51.600;7.558;2023-12-20T11:46:02;7.90;99.90
18948;DHT22;9607;51.600;7.558;2023-12-20T11:48:30;8.00;99.90
18948;DHT22;9607;51.600;7.558;2023-12-20T11:50:57;7.90;99.90
18948;DHT22;9607;51.600;7.558;2023-12-20T11:53:25;7.90;99.90
18948;DHT22;9607;51.600;7.558;2023-12-20T11:55:54;7.90;99.90
18948;DHT22;9607;51.600;7.558;2023-12-20T11:58:21;7.90;99.90
18948;DHT22;9607;51.600;7.558;2023-12-20T12:00:50;7.90;99.90
18948;DHT22;9607;51.600;7.558;2023-12-20T12:03:17;7.80;99.90
18948;DHT22;9607;51.600;7.558;2023-12-20T12:05:47;7.70;99.90
18948;DHT22;9607;51.600;7.558;2023-12-20T12:08:13;7.60;99.90
18948;DHT22;9607;51.600;7.558;2023-12-20T12:10:42;7.50;99.90
18948;DHT22;9607;51.600;7.558;2023-12-20T12:13:09;7.40;99.90
18948;DHT22;9607;51.600;7.558;2023-12-20T12:15:36;7.40;99.90
18948;DHT22;9607;51.600;7.558;2023-12-20T12:18:04;7.40;99.90
18948;DHT22;9607;51.600;7.558;2023-12-20T12:20:31;7.30;99.90
18948;DHT22;9607;51.600;7.558;2023-12-20T12:22:59;7.30;99.90
18948;DHT22;9607;51.600;7.558;2023-12-20T12:25:26;7.30;99.90
18948;DHT22;9607;51.600;7.558;2023-12-20T12:27:55;7.30;99.90
18948;DHT22;9607;51.600;7.558;2023-12-20T12:30:22;7.30;99.90
18948;DHT22;9607;51.600;7.558;2023-12-20T12:32:50;7.30;99.90
18948;DHT22;9607;51.600;7.558;2023-12-20T12:35:18;7.30;99.90
18948;DHT22;9607;51.600;7.558;2023-12-20T12:37:45;7.30;99.90
18948;DHT22;9607;51.600;7.558;2023-12-20T12:40:13;7.30;99.90
18948;DHT22;9607;51.600;7.558;2023-12-20T12:42:41;7.30;99.90
18948;DHT22;9607;51.600;7.558;2023-12-20T12:45:10;7.30;99.90
18948;DHT22;9607;51.600;7.558;2023-12-20T12:47:38;7.30;99.90
18948;DHT22;9607;51.600;7.558;2023-12-20T12:50:06;7.30;99.90
18948;DHT22;9607;51.600;7.558;2023-12-20T12:52:33;7.30;99.90
18948;DHT22;9607;51.600;7.558;2023-12-20T12:55:01;7.30;99.90
18948;DHT22;9607;51.600;7.558;2023-12-20T12:57:28;7.40;99.90
18948;DHT22;9607;51.600;7.558;2023-12-20T12:59:55;7.40;99.90
18948;DHT22;9607;51.600;7.558;2023-12-20T13:02:25;7.40;99.90
18948;DHT22;9607;51.600;7.558;2023-12-20T13:04:52;7.50;99.90
18948;DHT22;9607;51.600;7.558;2023-12-20T13:07:19;7.60;99.90
18948;DHT22;9607;51.600;7.558;2023-12-20T13:09:45;7.70;99.90
18948;DHT22;9607;51.600;7.558;2023-12-20T13:12:12;7.70;99.90
18948;DHT22;9607;51.600;7.558;2023-12-20T13:14:39;7.70;99.90
18948;DHT22;9607;51.600;7.558;2023-12-20T13:17:06;7.80;99.90
18948;DHT22;9607;51.600;7.558;2023-12-20T13:19:34;7.80;99.90
18948;DHT22;9607;51.600;7.558;2023-12-20T13:22:01;7.90;99.90
18948;DHT22;9607;51.600;7.558;2023-12-20T13:24:27;7.90;99.90
18948;DHT22;9607;51.600;7.558;2023-12-20T13:26:54;8.00;99.90
18948;DHT22;9607;51.600;7.558;2023-12-20T13:29:22;7.90;99.90
18948;DHT22;9607;51.600;7.558;2023-12-20T13:31:49;7.90;99.90
18948;DHT22;9607;51.600;7.558;2023-12-20T13:34:16;7.90;99.90
18948;DHT22;9607;51.600;7.558;2023-12-20T13:36:45;7.80;99.90
18948;DHT22;9607;51.600;7.558;2023-12-20T13:39:13;7.80;99.90
18948;DHT22;9607;51.600;7.558;2023-12-20T13:41:40;7.80;99.90
18948;DHT22;9607;51.600;7.558;2023-12-20T13:44:06;7.80;99.90
18948;DHT22;9607;51.600;7.558;2023-12-20T13:46:33;7.80;99.90
18948;DHT22;9607;51.600;7.558;2023-12-20T13:49:00;7.80;99.90
18948;DHT22;9607;51.600;7.558;2023-12-20T13:51:27;7.80;99.90
18948;DHT22;9607;51.600;7.558;2023-12-20T13:53:55;7.80;99.90
18948;DHT22;9607;51.600;7.558;2023-12-20T13:56:22;7.80;99.90
18948;DHT22;9607;51.600;7.558;2023-12-20T13:58:49;7.70;99.90
18948;DHT22;9607;51.600;7.558;2023-12-20T14:01:16;7.60;99.90
18948;DHT22;9607;51.600;7.558;2023-12-20T14:03:43;7.50;99.90
18948;DHT22;9607;51.600;7.558;2023-12-20T14:06:09;7.50;99.90
18948;DHT22;9607;51.600;7.558;2023-12-20T14:08:36;7.50;99.90
18948;DHT22;9607;51.600;7.558;2023-12-20T14:11:04;7.40;99.90
18948;DHT22;9607;51.600;7.558;2023-12-20T14:13:31;7.40;99.90
18948;DHT22;9607;51.600;7.558;2023-12-20T14:15:57;7.40;99.90
18948;DHT22;9607;51.600;7.558;2023-12-20T14:18:26;7.40;99.90
18948;DHT22;9607;51.600;7.558;2023-12-20T14:20:53;7.40;99.90
18948;DHT22;9607;51.600;7.558;2023-12-20T14:23:20;7.40;99.90
18948;DHT22;9607;51.600;7.558;2023-12-20T14:25:48;7.40;99.90
18948;DHT22;9607;51.600;7.558;2023-12-20T14:28:16;7.40;99.90
18948;DHT22;9607;51.600;7.558;2023-12-20T14:30:43;7.40;99.90
18948;DHT22;9607;51.600;7.558;2023-12-20T14:33:09;7.30;99.90
18948;DHT22;9607;51.600;7.558;2023-12-20T14:35:36;7.30;99.90
18948;DHT22;9607;51.600;7.558;2023-12-20T14:38:03;7.30;99.90
18948;DHT22;9607;51.600;7.558;2023-12-20T14:40:30;7.30;99.90
18948;DHT22;9607;51.600;7.558;2023-12-20T14:42:57;7.30;99.90
18948;DHT22;9607;51.600;7.558;2023-12-20T14:45:26;7.20;99.90
18948;DHT22;9607;51.600;7.558;2023-12-20T14:47:53;7.30;99.90
18948;DHT22;9607;51.600;7.558;2023-12-20T14:50:19;7.30;99.90
18948;DHT22;9607;51.600;7.558;2023-12-20T14:52:47;7.20;99.90
18948;DHT22;9607;51.600;7.558;2023-12-20T14:55:14;7.20;99.90
18948;DHT22;9607;51.600;7.558;2023-12-20T14:57:41;7.20;99.90
18948;DHT22;9607;51.600;7.558;2023-12-20T15:00:08;7.20;99.90
18948;DHT22;9607;51.600;7.558;2023-12-20T15:02:36;7.20;99.90
18948;DHT22;9607;51.600;7.558;2023-12-20T15:05:03;7.20;99.90
18948;DHT22;9607;51.600;7.558;2023-12-20T15:07:30;7.20;99.90
18948;DHT22;9607;51.600;7.558;2023-12-20T15:09:57;7.20;99.90
18948;DHT22;9607;51.600;7.558;2023-12-20T15:12:23;7.20;99.90
18948;DHT22;9607;51.600;7.558;2023-12-20T15:14:51;7.20;99.90
18948;DHT22;9607;51.600;7.558;2023-12-20T15:17:17;7.20;99.90
18948;DHT22;9607;51.600;7.558;2023-12-20T15:19:46;7.20;99.90
18948;DHT22;9607;51.600;7.558;2023-12-20T15:22:13;7.30;99.90
18948;DHT22;9607;51.600;7.558;2023-12-20T15:24:39;7.20;99.90
18948;DHT22;9607;51.600;7.558;2023-12-20T15:27:07;7.20;99.90
18948;DHT22;9607;51.600;7.558;2023-12-20T15:29:35;7.20;99.90
18948;DHT22;9607;51.600;7.558;2023-12-20T15:32:02;7.20;99.90
18948;DHT22;9607;51.600;7.558;2023-12-20T15:34:29;7.20;99.90
18948;DHT22;9607;51.600;7.558;2023-12-20T15:36:58;7.20;99.90
18948;DHT22;9607;51.600;7.558;2023-12-20T15:39:25;7.20;99.90
18948;DHT22;9607;51.600;7.558;2023-12-20T15:41:52;7.20;99.90
18948;DHT22;9607;51.600;7.558;2023-12-20T15:44:19;7.20;99.90
18948;DHT22;9607;51.600;7.558;2023-12-20T15:46:47;7.20;99.90
18948;DHT22;9607;51.600;7.558;2023-12-20T15:49:14;7.30;99.90
18948;DHT22;9607;51.600;7.558;2023-12-20T15:51:43;7.30;99.90
18948;DHT22;9607;51.600;7.558;2023-12-20T15:54:11;7.30;99.90
18948;DHT22;9607;51.600;7.558;2023-12-20T15:56:38;7.30;99.90
18948;DHT22;9607;51.600;7.558;2023-12-20T15:59:06;7.30;99.90
18948;DHT22;9607;51.600;7.558;2023-12-20T16:01:33;7.30;99.90
18948;DHT22;9607;51.600;7.558;2023-12-20T16:04:01;7.30;99.90